createdAt,value
2023-01-09T00:02:24.890Z,35.88
2023-01-09T00:05:22.889Z,38.08
2023-01-09T00:08:20.883Z,38.53
2023-01-09T00:11:18.595Z,36.72
2023-01-09T00:14:17.730Z,28.27
2023-01-09T00:17:15.474Z,29.70
2023-01-09T00:20:13.456Z,27.58
2023-01-09T00:23:11.174Z,23.95
2023-01-09T00:26:13.103Z,20.83
2023-01-09T00:29:12.042Z,23.27
2023-01-09T00:32:10.928Z,21.77
2023-01-09T00:35:10.565Z,29.45
2023-01-09T00:38:08.409Z,16.70
2023-01-09T00:41:10.598Z,23.40
2023-01-09T00:44:15.428Z,23.38
2023-01-09T00:47:20.006Z,26.30
2023-01-09T00:50:25.074Z,19.95
2023-01-09T00:53:26.939Z,18.90
2023-01-09T00:56:26.290Z,19.83
2023-01-09T00:59:24.277Z,20.52
2023-01-09T01:02:22.308Z,22.13
2023-01-09T01:05:35.513Z,17.60
2023-01-09T01:08:33.637Z,20.33
2023-01-09T01:11:33.328Z,19.63
2023-01-09T01:14:31.449Z,21.52
2023-01-09T01:17:29.476Z,27.00
2023-01-09T01:20:27.450Z,26.88
2023-01-09T01:23:25.159Z,24.95
2023-01-09T01:26:23.025Z,24.52
2023-01-09T01:29:21.414Z,27.85
2023-01-09T01:32:19.499Z,24.23
2023-01-09T01:35:17.396Z,29.10
2023-01-09T01:38:15.219Z,23.52
2023-01-09T01:41:12.971Z,23.70
2023-01-09T01:44:41.339Z,18.45
2023-01-09T01:47:47.092Z,17.73
2023-01-09T01:50:51.005Z,18.55
2023-01-09T01:53:56.561Z,19.75
2023-01-09T01:56:59.041Z,21.90
2023-01-09T02:00:00.603Z,21.90
2023-01-09T02:02:59.998Z,29.38
2023-01-09T02:05:57.898Z,34.42
2023-01-09T02:08:56.497Z,39.10
2023-01-09T02:11:57.615Z,29.75
2023-01-09T02:15:04.316Z,30.10
2023-01-09T02:18:22.846Z,26.80
2023-01-09T02:21:33.672Z,30.52
2023-01-09T02:25:06.507Z,28.92
2023-01-09T02:28:44.014Z,24.10
2023-01-09T02:32:03.053Z,25.15
2023-01-09T02:35:31.624Z,27.33
2023-01-09T02:38:48.825Z,26.02
2023-01-09T02:42:06.501Z,22.27
2023-01-09T02:45:04.793Z,25.38
2023-01-09T02:48:03.537Z,25.73
2023-01-09T02:51:21.022Z,27.65
2023-01-09T02:54:43.881Z,29.90
2023-01-09T02:58:11.244Z,36.45
2023-01-09T03:01:37.798Z,29.50
2023-01-09T03:05:04.763Z,28.67
2023-01-09T03:08:09.141Z,25.20
2023-01-09T03:11:09.357Z,29.17
2023-01-09T03:14:13.418Z,26.95
2023-01-09T03:17:15.078Z,32.50
2023-01-09T03:20:15.504Z,28.63
2023-01-09T03:23:13.467Z,28.08
2023-01-09T03:26:12.393Z,38.10
2023-01-09T03:29:10.408Z,28.70
2023-01-09T03:32:08.362Z,36.95
2023-01-09T03:35:06.421Z,33.85
2023-01-09T03:38:06.132Z,33.20
2023-01-09T03:41:05.469Z,31.25
2023-01-09T03:44:03.317Z,52.75
2023-01-09T03:47:01.364Z,93.80
2023-01-09T03:49:59.295Z,103.45
2023-01-09T03:52:57.103Z,115.35
2023-01-09T03:55:57.290Z,160.57
2023-01-09T03:58:55.087Z,161.93
2023-01-09T04:01:53.157Z,162.57
2023-01-09T04:04:50.933Z,164.40
2023-01-09T04:07:49.036Z,165.77
2023-01-09T04:10:49.770Z,174.25
2023-01-09T04:13:47.943Z,164.13
2023-01-09T04:16:45.729Z,186.80
2023-01-09T04:19:43.868Z,177.35
2023-01-09T04:22:41.898Z,166.88
2023-01-09T04:25:39.770Z,152.07
2023-01-09T04:28:37.453Z,158.73
2023-01-09T04:31:35.339Z,154.60
2023-01-09T04:34:33.112Z,171.07
2023-01-09T04:37:30.953Z,141.73
2023-01-09T04:40:29.197Z,163.77
2023-01-09T04:43:27.176Z,156.30
2023-01-09T04:46:24.880Z,133.55
2023-01-09T04:49:23.619Z,153.15
2023-01-09T04:52:21.521Z,146.57
2023-01-09T04:55:19.553Z,149.70
2023-01-09T04:58:17.268Z,134.35
2023-01-09T05:01:15.227Z,142.10
2023-01-09T05:04:13.531Z,165.45
2023-01-09T05:07:11.426Z,162.38
2023-01-09T05:10:10.990Z,150.63
2023-01-09T05:13:08.944Z,137.88
2023-01-09T05:16:07.244Z,146.35
2023-01-09T05:19:05.333Z,134.90
2023-01-09T05:22:03.118Z,142.25
2023-01-09T05:25:01.013Z,138.82
2023-01-09T05:27:58.786Z,121.97
2023-01-09T05:30:56.688Z,128.88
2023-01-09T05:33:54.654Z,124.18
2023-01-09T05:36:52.830Z,126.30
2023-01-09T05:39:50.859Z,127.40
2023-01-09T05:42:49.000Z,110.30
2023-01-09T05:45:46.812Z,109.68
2023-01-09T05:48:45.435Z,103.75
2023-01-09T05:51:43.238Z,98.80
2023-01-09T05:54:41.144Z,114.75
2023-01-09T05:57:40.145Z,100.95
2023-01-09T06:00:38.012Z,121.85
2023-01-09T06:03:36.040Z,126.82
2023-01-09T06:06:33.982Z,133.70
2023-01-09T06:09:31.894Z,137.48
2023-01-09T06:12:29.774Z,139.65
2023-01-09T06:15:27.588Z,132.93
2023-01-09T06:18:27.110Z,133.90
2023-01-09T06:21:24.842Z,120.82
2023-01-09T06:24:22.720Z,105.55
2023-01-09T06:27:20.503Z,110.90
2023-01-09T06:30:19.116Z,114.20
2023-01-09T06:33:16.912Z,103.45
2023-01-09T06:36:15.449Z,112.75
2023-01-09T06:39:14.542Z,92.72
2023-01-09T06:42:12.527Z,66.40
2023-01-09T06:45:11.014Z,80.55
2023-01-09T06:48:08.885Z,62.53
2023-01-09T06:55:18.382Z,92.00
2023-01-09T06:58:16.484Z,65.88
2023-01-09T07:01:14.577Z,46.03
2023-01-09T07:04:12.408Z,67.20
2023-01-09T07:07:10.421Z,76.47
2023-01-09T07:10:09.714Z,97.15
2023-01-09T07:13:07.780Z,88.55
2023-01-09T07:16:06.045Z,97.05
2023-01-09T07:19:04.041Z,105.75
2023-01-09T07:22:01.923Z,99.88
2023-01-09T07:25:00.123Z,86.32
2023-01-09T07:27:58.043Z,83.35
2023-01-09T07:30:56.102Z,83.45
2023-01-09T07:33:54.255Z,84.88
2023-01-09T07:36:52.460Z,94.82
2023-01-09T07:39:50.328Z,93.72
2023-01-09T07:42:48.934Z,96.30
2023-01-09T07:45:47.712Z,105.80
2023-01-09T07:48:45.626Z,88.97
2023-01-09T07:51:45.004Z,96.38
2023-01-09T07:54:42.989Z,90.80
2023-01-09T07:57:40.836Z,99.43
2023-01-09T08:00:38.795Z,100.45
2023-01-09T08:03:36.800Z,104.60
2023-01-09T08:06:34.725Z,101.65
2023-01-09T08:09:32.557Z,96.88
2023-01-09T08:12:30.521Z,98.90
2023-01-09T08:15:28.662Z,96.97
2023-01-09T08:18:26.628Z,101.32
2023-01-09T08:21:25.223Z,94.05
2023-01-09T08:24:24.986Z,94.43
2023-01-09T08:27:23.043Z,85.28
2023-01-09T08:30:21.106Z,90.68
2023-01-09T08:33:19.055Z,89.95
2023-01-09T08:36:17.047Z,100.47
2023-01-09T08:39:15.303Z,97.07
2023-01-09T08:42:28.342Z,89.95
2023-01-09T08:45:41.782Z,84.93
2023-01-09T08:48:39.601Z,85.57
2023-01-09T08:51:37.342Z,79.63
2023-01-09T08:54:39.439Z,125.90
2023-01-09T08:57:37.372Z,187.35
2023-01-09T09:00:35.261Z,189.85
2023-01-09T09:03:33.152Z,165.65
2023-01-09T09:06:30.929Z,160.60
2023-01-09T09:09:28.719Z,140.18
2023-01-09T09:12:26.579Z,166.65
2023-01-09T09:15:25.699Z,204.88
2023-01-09T09:18:23.544Z,208.60
2023-01-09T09:21:21.270Z,216.60
2023-01-09T09:24:22.317Z,222.35
2023-01-09T09:27:20.141Z,245.00
2023-01-09T09:30:19.828Z,249.85
2023-01-09T09:33:17.567Z,255.00
2023-01-09T09:36:15.371Z,267.58
2023-01-09T09:39:13.144Z,251.20
2023-01-09T09:42:54.360Z,259.75
2023-01-09T09:46:05.902Z,247.27
2023-01-09T09:49:11.487Z,234.38
2023-01-09T09:52:30.065Z,226.82
2023-01-09T09:55:34.042Z,216.73
2023-01-09T09:58:39.224Z,221.93
2023-01-09T10:01:42.649Z,214.60
2023-01-09T10:04:48.992Z,210.30
2023-01-09T10:07:51.555Z,216.90
2023-01-09T10:10:54.281Z,220.15
2023-01-09T10:14:22.911Z,236.75
2023-01-09T10:17:52.475Z,215.82
2023-01-09T10:20:57.780Z,195.88
2023-01-09T10:24:14.509Z,192.75
2023-01-09T10:27:34.330Z,206.93
2023-01-09T10:30:54.009Z,221.48
2023-01-09T10:34:13.974Z,218.93
2023-01-09T10:37:19.960Z,222.57
2023-01-09T10:40:37.770Z,228.80
2023-01-09T10:43:43.035Z,235.45
2023-01-09T10:46:48.259Z,233.90
2023-01-09T10:49:48.629Z,221.45
2023-01-09T10:52:47.146Z,224.15
2023-01-09T10:55:48.295Z,250.55
2023-01-09T10:58:46.220Z,237.65
2023-01-09T11:01:44.799Z,240.82
2023-01-09T11:04:44.051Z,212.52
2023-01-09T11:07:45.389Z,219.68
2023-01-09T11:10:50.469Z,210.85
2023-01-09T11:14:07.097Z,179.05
2023-01-09T11:17:05.205Z,145.18
2023-01-09T11:20:14.466Z,168.15
2023-01-09T11:23:27.450Z,174.48
2023-01-09T11:29:26.184Z,130.60
2023-01-09T11:32:33.531Z,124.28
2023-01-09T11:35:34.800Z,119.25
2023-01-09T11:38:46.609Z,120.70
2023-01-09T11:41:44.590Z,125.90
2023-01-09T11:44:42.456Z,103.22
2023-01-09T11:47:41.927Z,116.35
2023-01-09T11:50:39.699Z,106.05
2023-01-09T11:53:51.746Z,108.72
2023-01-09T11:56:50.981Z,113.20
2023-01-09T11:59:49.144Z,110.18
2023-01-09T12:03:07.911Z,106.40
2023-01-09T12:06:22.361Z,79.28
2023-01-09T12:09:38.296Z,69.18
2023-01-09T12:12:58.283Z,56.40
2023-01-09T12:16:12.115Z,39.92
2023-01-09T12:19:41.979Z,39.53
2023-01-09T12:22:54.903Z,41.25
2023-01-09T12:26:14.989Z,43.28
2023-01-09T12:29:25.119Z,41.80
2023-01-09T12:32:46.908Z,38.90
2023-01-09T12:35:55.669Z,39.63
2023-01-09T12:39:01.982Z,36.30
2023-01-09T12:42:15.773Z,53.92
2023-01-09T12:45:45.692Z,52.17
2023-01-09T12:49:11.483Z,48.88
2023-01-09T12:52:18.174Z,68.07
2023-01-09T12:55:21.491Z,74.80
2023-01-09T13:01:39.320Z,103.40
2023-01-09T13:04:52.038Z,91.15
2023-01-09T13:07:59.767Z,94.00
2023-01-09T13:11:20.720Z,99.68
2023-01-09T13:14:26.504Z,102.38
2023-01-09T13:17:38.808Z,89.72
2023-01-09T13:20:45.411Z,71.10
2023-01-09T13:24:18.489Z,76.28
2023-01-09T13:27:21.260Z,69.03
2023-01-09T13:30:36.644Z,69.35
2023-01-09T13:33:40.183Z,59.70
2023-01-09T13:36:40.474Z,55.45
2023-01-09T13:39:38.377Z,43.88
2023-01-09T13:42:36.456Z,46.47
2023-01-09T13:45:37.575Z,50.53
2023-01-09T13:48:43.260Z,39.65
2023-01-09T13:52:02.254Z,46.42
2023-01-09T13:55:03.724Z,56.78
2023-01-09T13:58:19.872Z,67.68
2023-01-09T14:01:41.643Z,90.72
2023-01-09T14:04:44.100Z,201.27
2023-01-09T14:07:46.174Z,261.27
2023-01-09T14:10:52.036Z,302.30
2023-01-09T14:13:59.567Z,318.15
2023-01-09T14:16:59.696Z,351.45
2023-01-09T14:20:00.921Z,332.25
2023-01-09T14:26:23.113Z,340.40
2023-01-09T14:29:39.028Z,319.80
2023-01-09T14:32:39.438Z,361.45
2023-01-09T14:35:47.022Z,320.20
2023-01-09T14:38:49.649Z,297.88
2023-01-09T14:41:58.946Z,312.35
2023-01-09T14:45:19.870Z,281.55
2023-01-09T14:48:18.093Z,247.50
2023-01-09T14:51:17.760Z,255.23
2023-01-09T14:54:28.265Z,247.00
2023-01-09T14:57:28.562Z,235.68
2023-01-09T15:00:26.481Z,228.27
2023-01-09T15:03:26.821Z,234.25
2023-01-09T15:06:27.280Z,253.95
2023-01-09T15:09:45.299Z,217.57
2023-01-09T15:12:47.255Z,214.75
2023-01-09T15:15:48.918Z,213.67
2023-01-09T15:18:50.623Z,225.25
2023-01-09T15:22:06.043Z,217.75
2023-01-09T15:25:33.662Z,218.40
2023-01-09T15:28:40.834Z,214.38
2023-01-09T15:31:42.644Z,207.15
2023-01-09T15:34:40.724Z,217.52
2023-01-09T15:37:39.575Z,219.75
2023-01-09T15:40:38.264Z,237.30
2023-01-09T15:43:40.224Z,218.65
2023-01-09T15:46:38.448Z,192.30
2023-01-09T15:49:37.799Z,203.30
2023-01-09T15:52:35.825Z,189.40
2023-01-09T15:55:35.683Z,190.35
2023-01-09T15:58:36.707Z,196.05
2023-01-09T16:01:47.295Z,185.13
2023-01-09T16:04:46.115Z,164.93
2023-01-09T16:07:47.832Z,192.02
2023-01-09T16:10:55.311Z,188.82
2023-01-09T16:13:54.679Z,189.63
2023-01-09T16:16:53.832Z,189.10
2023-01-09T16:19:54.547Z,178.00
2023-01-09T16:22:55.093Z,177.25
2023-01-09T16:26:05.535Z,175.73
2023-01-09T16:29:34.037Z,166.20
2023-01-09T16:32:34.781Z,168.38
2023-01-09T16:35:32.883Z,168.02
2023-01-09T16:38:32.861Z,161.18
2023-01-09T16:41:46.379Z,150.00
2023-01-09T16:44:44.155Z,132.95
2023-01-09T16:47:41.979Z,153.35
2023-01-09T16:50:40.716Z,145.77
2023-01-09T16:53:38.615Z,146.68
2023-01-09T16:56:37.648Z,133.27
2023-01-09T16:59:35.506Z,123.85
2023-01-09T17:02:33.215Z,141.48
2023-01-09T17:05:31.512Z,131.57
2023-01-09T17:08:31.643Z,121.30
2023-01-09T17:11:32.309Z,114.82
2023-01-09T17:14:30.172Z,105.85
2023-01-09T17:17:27.999Z,111.78
2023-01-09T17:20:25.857Z,106.78
2023-01-09T17:23:26.327Z,91.63
2023-01-09T17:26:39.329Z,82.45
2023-01-09T17:32:34.707Z,88.28
2023-01-09T17:35:32.530Z,81.38
2023-01-09T17:38:30.749Z,72.95
2023-01-09T17:41:30.849Z,95.95
2023-01-09T17:44:28.757Z,87.65
2023-01-09T17:47:26.587Z,87.45
2023-01-09T17:50:28.854Z,76.32
2023-01-09T17:53:27.001Z,78.63
2023-01-09T17:56:29.870Z,76.47
2023-01-09T17:59:28.075Z,74.82
2023-01-09T18:02:25.877Z,82.18
2023-01-09T18:05:24.938Z,80.22
2023-01-09T18:08:22.643Z,87.40
2023-01-09T18:11:22.255Z,74.38
2023-01-09T18:14:20.013Z,74.35
2023-01-09T18:17:17.875Z,67.75
2023-01-09T18:20:15.677Z,70.68
2023-01-09T18:23:14.030Z,69.13
2023-01-09T18:26:20.325Z,62.17
2023-01-09T18:29:20.592Z,67.72
2023-01-09T18:32:18.337Z,59.17
2023-01-09T18:35:16.964Z,59.50
2023-01-09T18:38:15.987Z,72.45
2023-01-09T18:41:14.522Z,60.45
2023-01-09T18:44:12.382Z,67.28
2023-01-09T18:47:10.232Z,61.63
2023-01-09T18:50:08.384Z,67.38
2023-01-09T18:53:06.850Z,72.45
2023-01-09T18:56:05.606Z,63.72
2023-01-09T18:59:03.534Z,72.32
2023-01-09T19:02:02.300Z,60.08
2023-01-09T19:05:00.277Z,66.28
2023-01-09T19:07:58.057Z,61.20
2023-01-09T19:10:55.948Z,58.95
2023-01-09T19:13:53.752Z,53.30
2023-01-09T19:16:51.644Z,52.60
2023-01-09T19:19:49.745Z,63.10
2023-01-09T19:22:47.517Z,60.33
2023-01-09T19:25:45.385Z,50.67
2023-01-09T19:28:45.906Z,39.60
2023-01-09T19:31:45.312Z,30.92
2023-01-09T19:34:43.175Z,35.42
2023-01-09T19:37:40.969Z,30.52
2023-01-09T19:40:38.887Z,33.80
2023-01-09T19:43:39.341Z,26.42
2023-01-09T19:46:38.338Z,33.03
2023-01-09T19:49:36.066Z,31.10
2023-01-09T19:52:34.241Z,33.83
2023-01-09T19:55:32.079Z,30.95
2023-01-09T19:58:32.775Z,37.33
2023-01-09T20:01:33.054Z,33.05
2023-01-09T20:07:56.203Z,32.33
2023-01-09T20:10:54.049Z,33.97
2023-01-09T20:13:52.546Z,35.53
2023-01-09T20:16:52.829Z,38.00
2023-01-09T20:19:50.674Z,34.15
2023-01-09T20:22:48.458Z,33.38
2023-01-09T20:25:46.535Z,29.35
2023-01-09T20:28:44.999Z,27.52
2023-01-09T20:31:43.313Z,36.45
2023-01-09T20:34:43.013Z,35.55
2023-01-09T20:37:40.894Z,37.35
2023-01-09T20:40:39.832Z,34.42
2023-01-09T20:43:38.320Z,33.50
2023-01-09T20:46:39.049Z,32.90
2023-01-09T20:49:36.918Z,36.40
2023-01-09T20:52:34.624Z,42.60
2023-01-09T20:55:32.448Z,42.33
2023-01-09T20:58:30.229Z,44.80
2023-01-09T21:01:28.712Z,40.15
2023-01-09T21:04:26.536Z,38.60
2023-01-09T21:07:25.547Z,42.15
2023-01-09T21:10:23.259Z,39.17
2023-01-09T21:13:21.075Z,43.03
2023-01-09T21:16:24.786Z,45.03
2023-01-09T21:19:23.187Z,42.30
2023-01-09T21:22:21.143Z,44.10
2023-01-09T21:25:19.065Z,42.97
2023-01-09T21:28:18.931Z,41.70
2023-01-09T21:31:19.930Z,36.83
2023-01-09T21:34:20.977Z,50.05
2023-01-09T21:37:18.831Z,41.42
2023-01-09T21:40:18.265Z,44.55
2023-01-09T21:43:41.188Z,50.17
2023-01-09T21:46:54.631Z,40.90
2023-01-09T21:49:52.558Z,47.63
2023-01-09T21:52:50.415Z,40.05
2023-01-09T21:55:48.308Z,38.50
2023-01-09T21:58:46.208Z,40.65
2023-01-09T22:01:44.729Z,47.80
2023-01-09T22:04:43.529Z,59.75
2023-01-09T22:07:41.410Z,46.22
2023-01-09T22:10:39.312Z,51.83
2023-01-09T22:13:37.186Z,59.42
2023-01-09T22:16:35.102Z,44.47
2023-01-09T22:19:33.234Z,52.75
2023-01-09T22:22:31.192Z,47.13
2023-01-09T22:25:29.072Z,49.22
2023-01-09T22:28:26.892Z,62.95
2023-01-09T22:31:26.363Z,55.55
2023-01-09T22:34:26.326Z,50.83
2023-01-09T22:37:24.109Z,56.92
2023-01-09T22:40:21.825Z,53.78
2023-01-09T22:43:19.697Z,54.25
2023-01-09T22:46:17.640Z,55.53
2023-01-09T22:49:15.515Z,52.08
2023-01-09T22:52:13.174Z,60.85
2023-01-09T22:55:11.952Z,55.03
2023-01-09T22:58:09.615Z,55.58
2023-01-09T23:01:10.261Z,48.85
2023-01-09T23:04:10.300Z,52.92
2023-01-09T23:07:08.275Z,45.42
2023-01-09T23:10:06.605Z,52.85
2023-01-09T23:13:04.537Z,55.05
2023-01-09T23:16:02.397Z,60.55
2023-01-09T23:19:00.358Z,58.85
2023-01-09T23:22:00.001Z,69.75
2023-01-09T23:24:57.859Z,75.88
2023-01-09T23:27:55.811Z,62.53
2023-01-09T23:30:54.148Z,64.88
2023-01-09T23:33:52.106Z,68.07
2023-01-09T23:36:50.295Z,57.45
2023-01-09T23:39:48.032Z,63.63
2023-01-09T23:43:01.270Z,63.65
2023-01-09T23:45:59.011Z,72.70
2023-01-09T23:48:56.888Z,72.15
2023-01-09T23:51:54.626Z,65.35
2023-01-09T23:54:52.523Z,74.32
2023-01-09T23:57:54.800Z,74.18
